CYLW/YLW METAR and TAF weather

Enter ICAO airport designator
Station Type Date Time Source
CYLW METAR 2019/09/20 09:18 UTC NOAA

CYLW 200918Z AUTO VRB02KT 9SM FEW046 SCT055 OVC080 13/12 A2995 RMK SLP144


Station Type Date Time Source
CYLW Decoded METAR 2019/09/20 09:18 UTC NOAA

Kelowna Airport, Canada (CYLW) 49-58N 119-23W 430M
Sep 20, 2019 - 05:18 AM EDT / 2019.09.20 0918 UTC
Wind: Variable at 2 MPH (2 KT):0
Visibility: 9 mile(s):0
Sky conditions: overcast
Temperature: 55 F (13 C)
Dew Point: 53 F (12 C)
Relative Humidity: 93%
Pressure (altimeter): 29.95 in. Hg (1014 hPa)
ob: CYLW 200918Z AUTO VRB02KT 9SM FEW046 SCT055 OVC080 13/12 A2995 RMK SLP144
cycle: 9

Station Type Date Time Source
CYLW TAF 2019/09/20 07:39 UTC NOAA

TAF TAF CYLW 200638Z 2007/2019 VRB03KT P6SM OVC060
TEMPO 2007/2011 5SM -SHRA BR OVC040
FM201100 VRB03KT P6SM SCT015 SCT060
TEMPO 2011/2017 4SM BR BKN015 PROB30 2011/2017 1SM BR BKN003
FM201700 VRB03KT P6SM FEW015 BKN040
RMK FCST BASED ON AUTO OBS. NXT FCST BY 201300Z

Example: see airport list